Time;durP1;ratioP1;P1;durP2;ratioP2;P2;SDS_P1;SDS_P2;PMS_P1;PMS_P2;Temp;Humidity;BMP_temperature;BMP_pressure;BME280_temperature;BME280_humidity;BME280_pressure;Samples;Min_cycle;Max_cycle;Signal;HPM_P1;HPM_P2
2022/08/04 00:00:30;;;;;;;13.93;5.10;;;20.50;99.90;;;;;;4948957;28;20039;-88
2022/08/04 00:03:15;;;;;;;15.10;5.40;;;20.50;99.90;;;;;;4949110;28;20070;-88
2022/08/04 00:06:01;;;;;;;13.20;4.60;;;20.50;99.90;;;;;;4947352;28;20046;-88
2022/08/04 00:08:48;;;;;;;15.40;4.95;;;20.50;99.90;;;;;;4966257;28;20043;-88
2022/08/04 00:11:28;;;;;;;14.40;4.63;;;20.50;99.90;;;;;;4966461;28;20050;-88
2022/08/04 00:14:15;;;;;;;15.77;5.00;;;20.50;99.90;;;;;;4950859;28;20073;-87
2022/08/04 00:16:42;;;;;;;15.15;5.18;;;20.50;99.90;;;;;;4959610;28;20102;-88
2022/08/04 00:19:16;;;;;;;14.02;5.10;;;20.50;99.90;;;;;;4955370;28;20046;-88
2022/08/04 00:21:48;;;;;;;15.35;5.57;;;20.50;99.90;;;;;;4949450;28;20051;-88
2022/08/04 00:24:15;;;;;;;13.88;5.38;;;20.50;99.90;;;;;;4947564;28;20046;-88
2022/08/04 00:26:42;;;;;;;12.70;5.18;;;20.50;99.90;;;;;;4947007;28;20054;-87
2022/08/04 00:29:09;;;;;;;15.48;5.88;;;20.40;99.90;;;;;;4951443;28;20061;-87
2022/08/04 00:31:35;;;;;;;15.98;6.28;;;20.40;99.90;;;;;;4946749;28;20046;-87
2022/08/04 00:34:02;;;;;;;18.15;6.63;;;20.40;99.90;;;;;;4948996;28;20042;-87
2022/08/04 00:36:29;;;;;;;15.23;6.20;;;20.40;99.90;;;;;;4947109;28;20085;-87
2022/08/04 00:38:56;;;;;;;18.42;6.80;;;20.40;99.90;;;;;;4948205;28;20097;-87
2022/08/04 00:41:29;;;;;;;19.02;7.22;;;20.40;99.90;;;;;;4932503;28;20428;-88
2022/08/04 00:44:23;;;;;;;16.48;6.90;;;20.40;99.90;;;;;;4949834;28;20373;-88
2022/08/04 00:47:07;;;;;;;18.05;6.47;;;20.40;99.90;;;;;;4947518;28;20041;-87
2022/08/04 00:50:02;;;;;;;15.48;7.05;;;20.40;99.90;;;;;;4948908;28;21152;-87
2022/08/04 00:52:32;;;;;;;17.08;6.82;;;19.90;99.90;;;;;;4949543;28;20137;-87
2022/08/04 00:55:16;;;;;;;14.07;6.80;;;20.40;99.90;;;;;;4965638;28;20105;-87
2022/08/04 00:58:00;;;;;;;15.35;6.70;;;20.50;99.90;;;;;;4962243;28;20424;-87
2022/08/04 01:00:31;;;;;;;18.65;7.15;;;20.40;99.90;;;;;;4946818;28;20408;-87
2022/08/04 01:03:15;;;;;;;16.75;6.88;;;20.40;99.90;;;;;;4949600;28;20066;-88
2022/08/04 01:05:56;;;;;;;22.70;7.10;;;20.50;99.90;;;;;;4948836;28;20050;-88
2022/08/04 01:08:37;;;;;;;14.10;6.78;;;20.50;99.90;;;;;;4948577;28;20069;-88
2022/08/04 01:11:26;;;;;;;15.65;6.78;;;20.50;99.90;;;;;;4947261;28;20568;-88
2022/08/04 01:14:14;;;;;;;17.40;6.28;;;20.50;99.90;;;;;;4964346;28;20101;-88
2022/08/04 01:16:49;;;;;;;15.68;6.95;;;20.50;99.90;;;;;;4947623;28;20046;-88
2022/08/04 01:19:32;;;;;;;14.32;6.68;;;20.50;99.90;;;;;;4962968;28;20051;-88
2022/08/04 01:22:21;;;;;;;15.13;6.50;;;20.40;99.90;;;;;;4964931;28;20038;-87
2022/08/04 01:25:24;;;;;;;16.77;6.78;;;20.40;99.90;;;;;;4968828;28;20062;-87
2022/08/04 01:28:11;;;;;;;16.02;6.88;;;20.40;99.90;;;;;;4963393;28;20063;-87
2022/08/04 01:30:41;;;;;;;14.48;5.97;;;20.40;99.90;;;;;;4977486;28;20058;-87
2022/08/04 01:33:13;;;;;;;17.00;7.07;;;20.40;99.90;;;;;;4963187;28;20218;-87
2022/08/04 01:35:54;;;;;;;19.80;7.47;;;20.40;99.90;;;;;;4946857;28;20369;-88
2022/08/04 01:38:44;;;;;;;12.40;6.32;;;20.30;99.90;;;;;;4950225;28;20023;-88
2022/08/04 01:41:13;;;;;;;14.07;6.20;;;20.30;99.90;;;;;;4945784;28;20050;-87
2022/08/04 01:43:44;;;;;;;14.23;6.57;;;20.20;99.90;;;;;;4947067;28;20106;-88
2022/08/04 01:46:15;;;;;;;13.90;6.60;;;20.20;99.90;;;;;;4947114;28;20125;-88
2022/08/04 01:48:46;;;;;;;17.10;6.90;;;20.20;99.90;;;;;;4964616;28;20046;-87
2022/08/04 01:51:13;;;;;;;17.10;6.70;;;20.20;99.90;;;;;;4929747;28;20474;-87
2022/08/04 01:53:44;;;;;;;18.50;7.22;;;20.10;99.90;;;;;;4947200;28;20093;-87
2022/08/04 01:56:11;;;;;;;16.38;6.80;;;20.20;99.90;;;;;;4965985;28;20504;-88
2022/08/04 01:58:39;;;;;;;16.30;7.13;;;20.10;99.90;;;;;;4949849;28;20049;-87
2022/08/04 02:01:10;;;;;;;14.45;6.75;;;20.10;99.90;;;;;;4948115;28;20072;-87
2022/08/04 02:03:39;;;;;;;18.15;6.72;;;20.20;99.90;;;;;;4949238;28;20121;-88
2022/08/04 02:06:30;;;;;;;15.45;6.70;;;20.20;99.90;;;;;;4947984;28;20043;-87
2022/08/04 02:09:35;;;;;;;17.00;6.55;;;20.10;99.90;;;;;;4964132;28;20053;-87
2022/08/04 02:12:25;;;;;;;14.95;6.63;;;20.10;99.90;;;;;;4890878;29;20044;-87
2022/08/04 02:15:03;;;;;;;16.67;7.10;;;20.10;99.90;;;;;;4960182;28;20123;-88
2022/08/04 02:17:53;;;;;;;14.73;7.50;;;20.00;99.90;;;;;;4949635;28;20027;-87
2022/08/04 02:20:26;;;;;;;16.58;7.20;;;20.00;99.90;;;;;;4949070;28;20050;-88
2022/08/04 02:23:03;;;;;;;;;;;20.00;99.90;;;;;;4963965;28;20098;-88
2022/08/04 02:25:36;;;;;;;14.80;6.13;;;20.00;99.90;;;;;;4948644;28;19918;-87
2022/08/04 02:28:11;;;;;;;14.80;7.65;;;19.90;99.90;;;;;;4948942;28;20062;-87
2022/08/04 02:30:58;;;;;;;15.57;6.97;;;20.00;99.90;;;;;;4964506;28;20098;-87
2022/08/04 02:33:34;;;;;;;17.48;7.90;;;20.00;99.90;;;;;;4962493;28;20081;-87
2022/08/04 02:36:03;;;;;;;16.67;7.20;;;20.00;99.90;;;;;;4962588;28;20066;-87
2022/08/04 02:38:53;;;;;;;16.00;7.50;;;20.00;99.90;;;;;;4965966;28;20035;-87
2022/08/04 02:41:23;;;;;;;17.95;7.18;;;20.00;99.90;;;;;;4946505;28;20065;-87
2022/08/04 02:43:51;;;;;;;15.55;6.95;;;19.90;99.90;;;;;;4949774;28;20515;-87
2022/08/04 02:46:18;;;;;;;15.93;7.07;;;20.00;99.90;;;;;;4948426;28;20034;-87
2022/08/04 02:48:50;;;;;;;13.93;6.82;;;19.90;99.90;;;;;;4952899;28;20050;-87
2022/08/04 02:51:27;;;;;;;14.75;6.95;;;19.90;99.90;;;;;;4952164;28;20522;-87
2022/08/04 02:53:58;;;;;;;13.60;6.65;;;19.80;99.90;;;;;;4948583;28;21784;-87
2022/08/04 02:56:27;;;;;;;14.57;7.57;;;19.80;99.90;;;;;;4932574;28;20042;-87
2022/08/04 02:58:58;;;;;;;15.13;7.50;;;19.80;99.90;;;;;;4950928;28;20039;-87
2022/08/04 03:01:24;;;;;;;14.30;6.88;;;19.80;99.90;;;;;;4951323;28;20107;-87
2022/08/04 03:04:18;;;;;;;16.88;6.55;;;19.80;99.90;;;;;;4952805;28;20141;-87
2022/08/04 03:07:02;;;;;;;16.98;7.43;;;19.80;99.90;;;;;;4918853;28;20050;-87
2022/08/04 03:09:55;;;;;;;13.88;6.88;;;19.70;99.90;;;;;;4966691;28;20038;-87
2022/08/04 03:12:49;;;;;;;16.80;7.35;;;19.60;99.90;;;;;;4969524;28;20043;-87
2022/08/04 03:15:45;;;;;;;14.88;7.25;;;19.60;99.90;;;;;;4948238;28;20101;-87
2022/08/04 03:18:17;;;;;;;17.40;7.10;;;19.60;99.90;;;;;;4949136;28;20174;-87
2022/08/04 03:21:27;;;;;;;15.48;7.65;;;19.50;99.90;;;;;;4949028;28;20238;-87
2022/08/04 03:24:11;;;;;;;14.18;7.30;;;19.50;99.90;;;;;;4950567;28;21442;-87
2022/08/04 03:27:08;;;;;;;15.50;7.30;;;19.50;99.90;;;;;;4950808;28;20530;-87
2022/08/04 03:29:53;;;;;;;16.77;7.63;;;19.50;99.90;;;;;;4949413;28;20057;-88
2022/08/04 03:32:19;;;;;;;14.85;7.28;;;19.40;99.90;;;;;;4967206;28;20114;-87
2022/08/04 03:35:21;;;;;;;15.30;7.60;;;19.40;99.90;;;;;;4947400;28;20122;-87
2022/08/04 03:37:56;;;;;;;15.18;7.50;;;19.40;99.90;;;;;;4949040;28;20154;-87
2022/08/04 03:40:22;;;;;;;15.95;7.60;;;19.40;99.90;;;;;;4964928;28;20638;-87
2022/08/04 03:43:15;;;;;;;15.00;8.05;;;19.40;99.90;;;;;;4968096;28;20041;-87
2022/08/04 03:46:09;;;;;;;17.88;7.82;;;19.40;99.90;;;;;;4949015;28;20030;-87
2022/08/04 03:48:40;;;;;;;14.13;7.28;;;19.30;99.90;;;;;;4967096;28;20053;-88
2022/08/04 03:54:37;;;;;;;15.57;7.97;;;19.30;99.90;;;;;;4961728;28;20125;-87
2022/08/04 03:57:21;;;;;;;14.65;7.45;;;19.30;99.90;;;;;;4951705;28;20382;-87
2022/08/04 04:00:09;;;;;;;15.05;7.70;;;19.30;99.90;;;;;;4966811;28;20031;-87
2022/08/04 04:02:54;;;;;;;15.95;7.60;;;19.30;99.90;;;;;;4949309;28;20057;-88
2022/08/04 04:05:46;;;;;;;14.85;7.38;;;19.30;99.90;;;;;;4949013;28;20031;-87
2022/08/04 04:08:27;;;;;;;17.17;7.45;;;19.20;99.90;;;;;;4951141;28;20046;-87
2022/08/04 04:11:24;;;;;;;12.68;6.40;;;19.20;99.90;;;;;;4965491;28;20058;-87
2022/08/04 04:14:27;;;;;;;14.57;6.65;;;19.20;99.90;;;;;;4974415;28;20046;-87
2022/08/04 04:17:31;;;;;;;16.38;8.07;;;19.20;99.90;;;;;;4950020;28;20035;-87
2022/08/04 04:20:09;;;;;;;13.90;6.88;;;19.20;99.90;;;;;;4951416;28;20042;-87
2022/08/04 04:22:59;;;;;;;16.55;7.80;;;19.20;99.90;;;;;;4951155;28;20094;-87
2022/08/04 04:25:44;;;;;;;14.45;6.75;;;19.30;99.90;;;;;;4965423;28;20047;-87
2022/08/04 04:28:19;;;;;;;18.63;7.82;;;19.30;99.90;;;;;;4964453;28;20086;-87
2022/08/04 04:31:20;;;;;;;15.07;7.40;;;19.30;99.90;;;;;;4964296;28;20047;-87
2022/08/04 04:34:18;;;;;;;16.10;7.57;;;19.30;99.90;;;;;;4902548;28;20081;-87
2022/08/04 04:37:02;;;;;;;14.77;7.15;;;19.30;99.90;;;;;;4981421;28;20530;-87
2022/08/04 04:39:52;;;;;;;14.50;7.03;;;19.20;99.90;;;;;;4967244;28;20455;-87
2022/08/04 04:42:41;;;;;;;16.20;7.43;;;19.40;99.90;;;;;;4950502;28;20096;-87
2022/08/04 04:45:22;;;;;;;12.43;6.88;;;19.40;99.90;;;;;;4947897;28;20395;-87
2022/08/04 04:48:08;;;;;;;13.30;6.40;;;19.50;99.90;;;;;;4946637;28;20489;-87
2022/08/04 04:51:18;;;;;;;14.98;7.28;;;19.50;99.90;;;;;;4966175;28;20048;-87
2022/08/04 04:54:18;;;;;;;13.90;6.95;;;19.60;99.90;;;;;;4966393;28;20528;-87
2022/08/04 04:57:20;;;;;;;13.60;6.82;;;19.60;99.90;;;;;;4947450;28;20420;-87
2022/08/04 04:59:52;;;;;;;16.88;7.43;;;19.70;99.90;;;;;;4893624;29;20514;-86
2022/08/04 05:02:30;;;;;;;14.10;7.05;;;19.70;99.90;;;;;;4947109;28;20472;-87
2022/08/04 05:05:12;;;;;;;14.55;7.80;;;19.80;99.90;;;;;;4963734;28;20662;-87
2022/08/04 05:08:06;;;;;;;16.00;7.93;;;19.90;99.90;;;;;;4942626;28;20046;-87
2022/08/04 05:11:03;;;;;;;14.18;8.25;;;20.00;99.90;;;;;;4949720;28;20198;-87
2022/08/04 05:13:43;;;;;;;17.40;8.18;;;20.00;99.90;;;;;;4964855;28;20039;-87
2022/08/04 05:16:17;;;;;;;17.27;9.15;;;20.10;99.90;;;;;;4948893;28;20037;-87
2022/08/04 05:18:50;;;;;;;18.10;8.88;;;20.20;99.90;;;;;;4947616;28;20094;-87
2022/08/04 05:21:32;;;;;;;;;;;20.20;99.90;;;;;;4963932;28;20061;-87
2022/08/04 05:24:04;;;;;;;19.40;8.90;;;20.30;99.90;;;;;;4963893;28;19922;-87
2022/08/04 05:26:34;;;;;;;16.60;8.32;;;20.30;99.90;;;;;;4966435;28;20431;-87
2022/08/04 05:29:06;;;;;;;17.15;8.00;;;20.40;99.90;;;;;;4947838;28;20194;-87
2022/08/04 05:31:43;;;;;;;17.08;8.35;;;20.50;99.90;;;;;;4963626;28;20043;-87
2022/08/04 05:34:19;;;;;;;17.90;8.95;;;20.60;99.90;;;;;;4944053;28;20659;-87
2022/08/04 05:36:51;;;;;;;19.42;9.52;;;20.80;99.90;;;;;;4962970;28;20105;-87
2022/08/04 05:39:52;;;;;;;19.55;8.50;;;20.80;99.90;;;;;;4949565;28;20038;-87
2022/08/04 05:42:19;;;;;;;15.77;8.10;;;20.90;99.90;;;;;;4949055;28;20473;-87
2022/08/04 05:44:45;;;;;;;16.40;7.68;;;21.00;99.90;;;;;;4948640;28;20496;-87
2022/08/04 05:47:12;;;;;;;19.20;7.97;;;21.00;99.90;;;;;;4934326;28;20042;-87
2022/08/04 05:49:40;;;;;;;18.15;8.43;;;21.10;99.90;;;;;;4950407;28;20465;-87
2022/08/04 05:52:08;;;;;;;19.15;8.38;;;21.20;99.90;;;;;;4949933;28;20074;-87
2022/08/04 05:54:36;;;;;;;18.85;8.02;;;21.30;99.90;;;;;;4949028;28;20058;-87
2022/08/04 05:57:04;;;;;;;18.98;8.13;;;21.40;99.90;;;;;;4965284;28;20039;-87
2022/08/04 05:59:32;;;;;;;18.90;7.70;;;21.50;99.90;;;;;;4966137;28;20150;-87
2022/08/04 06:01:59;;;;;;;15.88;6.78;;;21.60;99.90;;;;;;4950623;28;20042;-87
2022/08/04 06:04:38;;;;;;;13.65;6.45;;;21.60;99.90;;;;;;4932414;28;20488;-87
2022/08/04 06:07:05;;;;;;;13.73;6.95;;;21.70;99.90;;;;;;4947985;28;20102;-86
2022/08/04 06:09:31;;;;;;;13.02;6.60;;;21.80;99.90;;;;;;4947810;28;20548;-85
2022/08/04 06:12:01;;;;;;;17.02;6.35;;;21.90;99.90;;;;;;4950290;28;20046;-86
2022/08/04 06:14:39;;;;;;;14.68;6.50;;;22.00;99.90;;;;;;4949663;28;20042;-84
2022/08/04 06:17:07;;;;;;;15.35;6.70;;;22.00;99.90;;;;;;4951309;28;20101;-84
2022/08/04 06:19:35;;;;;;;15.57;6.50;;;22.10;99.90;;;;;;4950752;28;20042;-84
2022/08/04 06:22:04;;;;;;;13.23;6.13;;;22.20;99.90;;;;;;4968204;28;20045;-84
2022/08/04 06:24:31;;;;;;;15.43;6.60;;;22.30;99.90;;;;;;4952121;28;20038;-84
2022/08/04 06:26:58;;;;;;;12.20;5.32;;;22.50;99.90;;;;;;4954815;28;20480;-84
2022/08/04 06:29:32;;;;;;;13.13;5.25;;;22.60;99.90;;;;;;4968453;28;20047;-85
2022/08/04 06:32:01;;;;;;;15.35;5.75;;;22.80;99.90;;;;;;4967761;28;20047;-85
2022/08/04 06:34:29;;;;;;;15.77;5.57;;;22.90;99.90;;;;;;4937848;28;20471;-83
2022/08/04 06:36:56;;;;;;;13.93;5.70;;;23.00;99.90;;;;;;4964693;28;20031;-85
2022/08/04 06:39:24;;;;;;;13.05;5.28;;;23.10;99.90;;;;;;4950872;28;20534;-85
2022/08/04 06:41:52;;;;;;;13.57;5.22;;;23.20;99.90;;;;;;4969880;28;20035;-85
2022/08/04 06:44:20;;;;;;;13.82;5.38;;;23.30;99.90;;;;;;4951532;28;20051;-85
2022/08/04 06:46:47;;;;;;;13.90;5.22;;;23.30;99.90;;;;;;4936032;28;20068;-85
2022/08/04 06:49:13;;;;;;;14.02;5.78;;;23.40;99.90;;;;;;4952015;28;20567;-86
2022/08/04 06:51:40;;;;;;;12.63;4.93;;;23.50;99.90;;;;;;4938139;28;20050;-85
2022/08/04 06:54:06;;;;;;;10.30;4.70;;;23.50;99.90;;;;;;4953180;28;20034;-86
2022/08/04 06:56:34;;;;;;;13.73;5.00;;;23.60;99.90;;;;;;4936756;28;20045;-86
2022/08/04 06:59:01;;;;;;;12.75;4.90;;;23.70;99.90;;;;;;4950138;28;20050;-85
2022/08/04 07:01:28;;;;;;;11.18;4.55;;;23.80;99.90;;;;;;4965041;28;20043;-86
2022/08/04 07:03:54;;;;;;;13.05;4.70;;;23.90;99.90;;;;;;4952499;28;20041;-85
2022/08/04 07:06:24;;;;;;;11.07;4.60;;;23.90;99.90;;;;;;4953534;28;20381;-85
2022/08/04 07:08:51;;;;;;;15.13;4.88;;;23.80;99.90;;;;;;4952202;28;20043;-85
2022/08/04 07:11:18;;;;;;;12.82;4.88;;;24.00;99.90;;;;;;4932958;28;20294;-86
2022/08/04 07:13:45;;;;;;;11.15;4.47;;;24.00;99.90;;;;;;4967919;28;20031;-86
2022/08/04 07:16:13;;;;;;;12.27;4.63;;;24.20;99.90;;;;;;4952313;28;20274;-85
2022/08/04 07:18:39;;;;;;;11.07;4.13;;;24.30;99.90;;;;;;4966452;28;20486;-85
2022/08/04 07:21:05;;;;;;;14.35;4.60;;;24.50;99.90;;;;;;4936681;28;21130;-85
2022/08/04 07:23:31;;;;;;;13.65;3.92;;;24.60;99.90;;;;;;4952058;28;20133;-86
2022/08/04 07:25:57;;;;;;;11.70;4.28;;;24.80;99.90;;;;;;4951400;28;20126;-85
2022/08/04 07:28:26;;;;;;;11.10;4.25;;;24.90;99.90;;;;;;4951464;28;20471;-86
2022/08/04 07:30:53;;;;;;;13.13;4.22;;;25.00;99.90;;;;;;4951217;28;20082;-85
2022/08/04 07:33:19;;;;;;;10.15;3.72;;;25.10;99.90;;;;;;4965208;28;20439;-85
2022/08/04 07:35:47;;;;;;;15.35;4.28;;;25.10;99.90;;;;;;4968839;28;20125;-85
2022/08/04 07:38:12;;;;;;;11.05;3.70;;;25.10;99.90;;;;;;4951591;28;20038;-86
2022/08/04 07:40:39;;;;;;;12.20;3.75;;;25.20;99.90;;;;;;4936556;28;20101;-85
2022/08/04 07:43:05;;;;;;;10.15;3.60;;;25.30;99.90;;;;;;4936625;28;20114;-84
2022/08/04 07:45:31;;;;;;;13.73;3.80;;;25.40;99.90;;;;;;4934964;28;20049;-85
2022/08/04 07:47:57;;;;;;;10.25;3.47;;;25.50;99.90;;;;;;4935530;28;20046;-86
2022/08/04 07:50:24;;;;;;;10.25;3.72;;;25.60;99.90;;;;;;4966779;28;20396;-85
2022/08/04 07:52:51;;;;;;;11.73;3.60;;;25.70;99.90;;;;;;4937952;28;20035;-85
2022/08/04 07:55:18;;;;;;;11.77;3.75;;;25.70;99.90;;;;;;4952412;28;20039;-85
2022/08/04 07:57:44;;;;;;;13.70;3.67;;;25.70;99.90;;;;;;4951609;28;20118;-86
2022/08/04 08:00:13;;;;;;;13.95;3.72;;;25.80;99.90;;;;;;4936619;28;20114;-86
2022/08/04 08:02:41;;;;;;;10.55;3.50;;;25.80;99.90;;;;;;4951819;28;20154;-86
2022/08/04 08:05:09;;;;;;;13.70;3.65;;;25.90;99.90;;;;;;4936287;28;20461;-87
2022/08/04 08:07:35;;;;;;;12.57;3.70;;;26.00;99.90;;;;;;4966010;28;20109;-86
2022/08/04 08:10:00;;;;;;;11.25;3.35;;;26.10;99.90;;;;;;4965270;28;20035;-86
2022/08/04 08:12:28;;;;;;;11.18;3.75;;;26.20;99.90;;;;;;4951927;28;20050;-86
2022/08/04 08:14:54;;;;;;;10.77;3.45;;;26.30;99.90;;;;;;4951722;28;20121;-88
2022/08/04 08:17:20;;;;;;;11.93;3.67;;;26.30;99.90;;;;;;4953769;28;20153;-85
2022/08/04 08:19:45;;;;;;;10.30;3.28;;;26.30;99.90;;;;;;4931410;28;20500;-85
2022/08/04 08:22:11;;;;;;;13.38;3.35;;;26.40;99.90;;;;;;4941209;28;20034;-86
2022/08/04 08:24:37;;;;;;;9.13;2.92;;;26.40;99.90;;;;;;4958810;28;20035;-85
2022/08/04 08:27:03;;;;;;;14.43;3.65;;;26.50;99.90;;;;;;4938685;28;20493;-85
2022/08/04 08:29:31;;;;;;;11.13;3.00;;;26.50;99.90;;;;;;4970099;28;20059;-85
2022/08/04 08:31:59;;;;;;;12.15;3.22;;;26.50;99.90;;;;;;4968227;28;20047;-85
2022/08/04 08:34:27;;;;;;;12.73;3.50;;;26.50;99.90;;;;;;4933268;28;20030;-85
2022/08/04 08:36:57;;;;;;;10.25;3.15;;;26.50;99.90;;;;;;4935508;28;20042;-86
2022/08/04 08:39:49;;;;;;;9.23;3.08;;;26.60;99.90;;;;;;4949863;28;20089;-87
2022/08/04 08:42:30;;;;;;;10.65;2.85;;;26.50;99.90;;;;;;4929369;28;20109;-86
2022/08/04 08:45:14;;;;;;;10.88;3.08;;;26.50;99.90;;;;;;4949466;28;20035;-86
2022/08/04 08:48:02;;;;;;;13.82;3.35;;;26.50;99.90;;;;;;4967129;28;20038;-87
2022/08/04 08:50:34;;;;;;;13.30;3.03;;;26.50;99.90;;;;;;4950828;28;20035;-86
2022/08/04 08:53:11;;;;;;;11.30;3.08;;;26.70;99.90;;;;;;4951414;28;20038;-87
2022/08/04 08:56:15;;;;;;;11.05;3.22;;;26.90;99.90;;;;;;4950260;28;20047;-86
2022/08/04 08:58:58;;;;;;;9.70;3.25;;;27.00;99.90;;;;;;4951809;28;20258;-86
2022/08/04 09:01:54;;;;;;;10.73;2.72;;;27.20;99.90;;;;;;4964027;28;20332;-86
2022/08/04 09:04:35;;;;;;;12.27;3.28;;;27.30;99.90;;;;;;4951009;28;20527;-88
2022/08/04 09:07:18;;;;;;;10.38;3.10;;;27.30;99.90;;;;;;4967514;28;20038;-86
2022/08/04 09:10:09;;;;;;;12.48;3.80;;;27.20;99.90;;;;;;4965894;28;20039;-87
2022/08/04 09:12:50;;;;;;;9.82;3.17;;;27.10;99.90;;;;;;4950671;28;20523;-86
2022/08/04 09:15:24;;;;;;;13.32;3.55;;;27.20;99.90;;;;;;4950264;28;20066;-86
2022/08/04 09:18:20;;;;;;;12.75;3.95;;;27.30;99.90;;;;;;4951699;28;20369;-86
2022/08/04 09:21:04;;;;;;;12.80;3.92;;;27.40;99.90;;;;;;4950531;28;20050;-86
2022/08/04 09:23:50;;;;;;;9.88;3.80;;;27.50;99.90;;;;;;4947979;28;20384;-87
2022/08/04 09:26:22;;;;;;;10.95;3.80;;;27.70;99.90;;;;;;4967497;28;20079;-87
2022/08/04 09:28:56;;;;;;;9.82;3.50;;;27.70;99.90;;;;;;4949069;28;20054;-87
2022/08/04 09:31:29;;;;;;;9.90;3.58;;;27.50;99.90;;;;;;4950587;28;20113;-87
2022/08/04 09:34:12;;;;;;;10.80;3.20;;;27.50;99.90;;;;;;4947679;28;20034;-86
2022/08/04 09:36:52;;;;;;;11.95;3.67;;;27.50;99.90;;;;;;4950342;28;20089;-87
2022/08/04 09:39:48;;;;;;;10.38;3.53;;;27.50;99.90;;;;;;4951055;28;20384;-86
2022/08/04 09:42:50;;;;;;;9.40;3.60;;;27.50;99.90;;;;;;4949650;28;20038;-87
2022/08/04 09:45:18;;;;;;;11.52;4.22;;;27.60;99.90;;;;;;4939467;28;20117;-87
2022/08/04 09:47:49;;;;;;;12.52;4.40;;;27.80;99.90;;;;;;4966404;28;20118;-85
2022/08/04 09:50:38;;;;;;;13.15;4.68;;;27.70;99.90;;;;;;4950835;28;20337;-86
2022/08/04 09:53:27;;;;;;;11.80;4.30;;;27.70;99.90;;;;;;4970401;28;20141;-85
2022/08/04 09:56:01;;;;;;;19.65;4.72;;;27.60;99.90;;;;;;4951851;28;20043;-84
2022/08/04 09:58:42;;;;;;;11.07;4.30;;;27.60;99.90;;;;;;4955531;28;20039;-86
2022/08/04 10:01:16;;;;;;;11.52;4.35;;;27.80;99.90;;;;;;4967880;28;20411;-86
2022/08/04 10:03:50;;;;;;;11.55;4.00;;;27.50;99.90;;;;;;4970685;28;20039;-87
2022/08/04 10:06:37;;;;;;;12.57;4.03;;;27.50;99.90;;;;;;4952791;28;20037;-87
2022/08/04 10:09:24;;;;;;;12.77;3.78;;;27.70;99.90;;;;;;4962304;28;20065;-87
2022/08/04 10:12:06;;;;;;;14.68;3.40;;;27.70;99.90;;;;;;4955877;28;20074;-88
2022/08/04 10:14:52;;;;;;;10.57;3.25;;;27.90;99.90;;;;;;4973197;28;20101;-87
2022/08/04 10:17:53;;;;;;;10.98;3.28;;;27.90;99.90;;;;;;4972908;28;20085;-87
2022/08/04 10:21:02;;;;;;;9.50;3.10;;;28.00;99.90;;;;;;4956516;28;20054;-87
2022/08/04 10:23:40;;;;;;;7.85;2.67;;;27.80;99.90;;;;;;4950383;28;20122;-87
2022/08/04 10:26:27;;;;;;;8.98;2.85;;;27.80;99.90;;;;;;4971859;28;20142;-87
2022/08/04 10:29:17;;;;;;;8.10;2.35;;;27.80;99.90;;;;;;4945214;28;20501;-88
2022/08/04 10:32:08;;;;;;;10.32;2.80;;;27.70;99.90;;;;;;4951198;28;20503;-88
2022/08/04 10:35:01;;;;;;;9.20;2.47;;;27.60;99.90;;;;;;4966591;28;20039;-87
2022/08/04 10:37:51;;;;;;;9.70;2.40;;;27.50;99.90;;;;;;4966439;28;20114;-88
2022/08/04 10:40:44;;;;;;;10.85;2.67;;;27.60;99.90;;;;;;4944888;28;20499;-87
2022/08/04 10:43:34;;;;;;;10.70;2.35;;;27.70;99.90;;;;;;4966766;28;20039;-85
2022/08/04 10:46:04;;;;;;;7.63;2.58;;;27.70;99.90;;;;;;4969531;28;20070;-86
2022/08/04 10:48:45;;;;;;;8.43;2.40;;;28.10;99.90;;;;;;4955548;28;20073;-86
2022/08/04 10:51:34;;;;;;;12.90;2.20;;;28.10;99.90;;;;;;4954682;28;20043;-86
2022/08/04 10:54:04;;;;;;;10.50;1.80;;;28.30;99.90;;;;;;4979116;28;20056;-85
2022/08/04 10:56:47;;;;;;;9.85;2.42;;;28.10;99.90;;;;;;4971343;28;20074;-85
2022/08/04 10:59:38;;;;;;;8.30;2.00;;;28.20;99.90;;;;;;4969178;28;20043;-85
2022/08/04 11:02:37;;;;;;;9.55;2.20;;;28.00;99.90;;;;;;4951916;28;20042;-84
2022/08/04 11:05:28;;;;;;;8.90;2.25;;;28.00;99.90;;;;;;4952444;28;20064;-86
2022/08/04 11:08:00;;;;;;;8.75;2.20;;;27.90;99.90;;;;;;4952670;28;20075;-86
2022/08/04 11:10:31;;;;;;;10.60;2.30;;;27.90;99.90;;;;;;4955597;28;20089;-86
2022/08/04 11:13:04;;;;;;;11.10;2.25;;;27.90;99.90;;;;;;4951076;28;20492;-86
2022/08/04 11:15:39;;;;;;;9.38;2.17;;;28.00;99.90;;;;;;4971446;28;20105;-85
2022/08/04 11:18:13;;;;;;;10.93;2.40;;;28.00;99.90;;;;;;4971075;28;20119;-86
2022/08/04 11:20:49;;;;;;;10.07;2.40;;;28.00;99.90;;;;;;4967328;28;20603;-85
2022/08/04 11:23:17;;;;;;;14.30;2.67;;;28.00;99.90;;;;;;4953148;28;20106;-86
2022/08/04 11:26:00;;;;;;;9.35;2.65;;;28.00;99.90;;;;;;4955798;28;20042;-86
2022/08/04 11:28:26;;;;;;;15.07;2.90;;;28.00;99.90;;;;;;4969504;28;20476;-84
2022/08/04 11:31:03;;;;;;;10.27;2.95;;;28.00;99.90;;;;;;4969552;28;20050;-86
2022/08/04 11:33:35;;;;;;;10.57;2.30;;;28.00;99.90;;;;;;4951655;28;20102;-85
2022/08/04 11:36:09;;;;;;;13.95;3.00;;;27.80;99.90;;;;;;4970283;28;20034;-87
2022/08/04 11:39:03;;;;;;;7.75;2.13;;;27.70;99.90;;;;;;4953963;28;20125;-87
2022/08/04 11:41:55;;;;;;;9.98;2.42;;;27.70;99.90;;;;;;4954093;28;20054;-85
2022/08/04 11:44:43;;;;;;;7.78;2.15;;;27.60;99.90;;;;;;4921651;28;20545;-84
2022/08/04 11:47:18;;;;;;;8.05;2.03;;;27.60;99.90;;;;;;4956556;28;20049;-84
2022/08/04 11:49:48;;;;;;;9.48;2.28;;;27.60;99.90;;;;;;4954832;28;20073;-84
2022/08/04 11:52:18;;;;;;;8.95;2.00;;;27.60;99.90;;;;;;4954024;28;20054;-86
2022/08/04 11:54:45;;;;;;;10.32;2.20;;;27.70;99.90;;;;;;4954203;28;20050;-84
2022/08/04 11:57:11;;;;;;;7.10;2.03;;;27.80;99.90;;;;;;4970555;28;20505;-84
2022/08/04 11:59:40;;;;;;;6.47;1.80;;;27.80;99.90;;;;;;4934592;28;20043;-86
2022/08/04 12:02:34;;;;;;;5.95;1.88;;;27.70;99.90;;;;;;4953852;28;20046;-85
2022/08/04 12:05:01;;;;;;;6.57;2.08;;;27.60;99.90;;;;;;4950839;28;20548;-85
2022/08/04 12:07:36;;;;;;;7.28;1.85;;;27.60;99.90;;;;;;4954338;28;20039;-83
2022/08/04 12:10:32;;;;;;;6.40;1.90;;;27.60;99.90;;;;;;4946587;28;20038;-85
2022/08/04 12:13:12;;;;;;;7.88;1.98;;;27.40;99.90;;;;;;4954231;28;20058;-85
2022/08/04 12:15:48;;;;;;;5.32;1.90;;;27.20;99.90;;;;;;4965281;28;20121;-86
2022/08/04 12:18:50;;;;;;;5.75;1.75;;;27.20;99.90;;;;;;4951425;28;20587;-84
2022/08/04 12:21:22;;;;;;;8.45;1.85;;;27.10;99.90;;;;;;4949621;28;20126;-86
2022/08/04 12:23:51;;;;;;;5.00;1.80;;;26.80;99.90;;;;;;4968697;28;20049;-85
2022/08/04 12:26:24;;;;;;;6.95;1.75;;;26.80;99.90;;;;;;4969703;28;20512;-85
2022/08/04 12:28:54;;;;;;;7.55;1.70;;;26.70;99.90;;;;;;4967756;28;20066;-84
2022/08/04 12:31:26;;;;;;;5.32;1.80;;;26.40;99.90;;;;;;4951258;28;20047;-85
2022/08/04 12:33:59;;;;;;;5.55;1.65;;;26.60;99.90;;;;;;4952088;28;20053;-85
2022/08/04 12:36:45;;;;;;;5.43;1.77;;;26.40;99.90;;;;;;4968805;28;20045;-85
2022/08/04 12:39:15;;;;;;;4.03;1.50;;;26.30;99.90;;;;;;4969541;28;20035;-85
2022/08/04 12:41:55;;;;;;;3.80;1.40;;;26.10;99.90;;;;;;4968768;28;20047;-84
2022/08/04 12:44:21;;;;;;;5.93;1.73;;;26.00;99.90;;;;;;4951926;28;20057;-85
2022/08/04 12:46:48;;;;;;;6.70;1.70;;;25.90;99.90;;;;;;4952456;28;20065;-86
2022/08/04 12:49:15;;;;;;;4.40;1.60;;;25.80;99.90;;;;;;4950363;28;20082;-85
2022/08/04 12:51:45;;;;;;;6.32;1.92;;;25.80;99.90;;;;;;4936928;28;20049;-85
2022/08/04 12:54:13;;;;;;;6.32;1.70;;;25.70;99.90;;;;;;4964388;28;20054;-84
2022/08/04 12:56:40;;;;;;;5.95;1.55;;;25.70;99.90;;;;;;4957409;28;20527;-84
2022/08/04 12:59:07;;;;;;;5.28;1.60;;;25.70;99.90;;;;;;4970447;28;20049;-86
2022/08/04 13:01:35;;;;;;;5.35;1.50;;;25.80;99.90;;;;;;4953568;28;20404;-84
2022/08/04 13:04:16;;;;;;;6.00;1.80;;;25.90;99.90;;;;;;4934912;28;20097;-86
2022/08/04 13:06:44;;;;;;;4.75;1.60;;;26.10;99.90;;;;;;4951680;28;20093;-85
2022/08/04 13:09:15;;;;;;;7.55;1.83;;;26.10;99.90;;;;;;4934095;28;20031;-86
2022/08/04 13:11:45;;;;;;;5.47;1.60;;;26.30;99.90;;;;;;4948016;28;20631;-86
2022/08/04 13:14:13;;;;;;;5.07;1.70;;;26.40;99.90;;;;;;4951408;28;20034;-86
2022/08/04 13:16:40;;;;;;;3.67;1.60;;;26.50;99.90;;;;;;4934836;28;20043;-85
2022/08/04 13:19:08;;;;;;;6.25;1.50;;;26.50;99.90;;;;;;4933094;29;20056;-85
2022/08/04 13:21:39;;;;;;;4.03;1.60;;;26.50;99.90;;;;;;4983503;28;20045;-85
2022/08/04 13:24:08;;;;;;;3.47;1.35;;;26.40;99.90;;;;;;4951127;28;20050;-86
2022/08/04 13:26:35;;;;;;;5.43;1.70;;;26.40;99.90;;;;;;4968118;28;20049;-85
2022/08/04 13:29:06;;;;;;;5.05;1.70;;;26.40;99.90;;;;;;4951067;28;20053;-85
2022/08/04 13:31:34;;;;;;;6.15;1.70;;;26.40;99.90;;;;;;4962770;28;20405;-86
2022/08/04 13:34:07;;;;;;;4.30;1.30;;;26.40;99.90;;;;;;4966361;28;20031;-85